createdAt,value
2024-02-02T00:02:07.972Z,2.28
2024-02-02T00:04:35.087Z,2.25
2024-02-02T00:07:02.321Z,2.20
2024-02-02T00:09:29.474Z,2.17
2024-02-02T00:11:57.101Z,2.20
2024-02-02T00:14:26.194Z,2.24
2024-02-02T00:16:53.329Z,2.25
2024-02-02T00:19:20.515Z,2.30
2024-02-02T00:21:47.670Z,2.34
2024-02-02T00:24:14.743Z,2.41
2024-02-02T00:26:41.786Z,2.49
2024-02-02T00:29:08.915Z,2.56
2024-02-02T00:31:37.510Z,2.62
2024-02-02T00:34:04.707Z,2.68
2024-02-02T00:36:31.792Z,2.72
2024-02-02T00:38:59.008Z,2.75
2024-02-02T00:41:26.167Z,2.76
2024-02-02T00:43:53.235Z,2.76
2024-02-02T00:46:20.278Z,2.65
2024-02-02T00:48:48.820Z,2.61
2024-02-02T00:51:16.092Z,2.62
2024-02-02T00:53:43.146Z,2.65
2024-02-02T00:56:10.262Z,2.68
2024-02-02T00:58:37.666Z,2.69
2024-02-02T01:01:05.096Z,2.62
2024-02-02T01:03:34.973Z,2.58
2024-02-02T01:06:04.689Z,2.55
2024-02-02T01:08:31.894Z,2.54
2024-02-02T01:11:01.955Z,2.52
2024-02-02T01:13:31.067Z,2.46
2024-02-02T01:15:58.280Z,2.40
2024-02-02T01:18:25.753Z,2.39
2024-02-02T01:20:53.064Z,2.40
2024-02-02T01:23:21.614Z,2.43
2024-02-02T01:25:48.810Z,2.45
2024-02-02T01:28:15.933Z,2.42
2024-02-02T01:30:43.089Z,2.35
2024-02-02T01:33:11.295Z,2.27
2024-02-02T01:35:38.601Z,2.24
2024-02-02T01:38:05.925Z,2.20
2024-02-02T01:40:34.695Z,2.21
2024-02-02T01:43:01.785Z,2.21
2024-02-02T01:45:28.982Z,2.25
2024-02-02T01:47:56.908Z,2.27
2024-02-02T01:50:24.217Z,2.29
2024-02-02T01:52:51.342Z,2.32
2024-02-02T01:55:18.443Z,2.33
2024-02-02T01:57:47.660Z,2.38
2024-02-02T02:00:15.499Z,2.38
2024-02-02T02:02:42.750Z,2.34
2024-02-02T02:05:11.003Z,2.29
2024-02-02T02:07:38.339Z,2.26
2024-02-02T02:10:06.405Z,2.25
2024-02-02T02:12:35.128Z,2.24
2024-02-02T02:15:04.057Z,2.22
2024-02-02T02:17:31.474Z,2.18
2024-02-02T02:19:59.755Z,2.13
2024-02-02T02:22:28.316Z,2.07
2024-02-02T02:24:55.347Z,2.01
2024-02-02T02:27:22.673Z,1.99
2024-02-02T02:29:49.743Z,1.95
2024-02-02T02:32:17.214Z,1.95
2024-02-02T02:34:44.401Z,1.98
2024-02-02T02:37:11.609Z,1.97
2024-02-02T02:39:40.103Z,1.99
2024-02-02T02:42:07.627Z,1.99
2024-02-02T02:44:34.759Z,1.99
2024-02-02T02:47:01.875Z,1.94
2024-02-02T02:49:30.296Z,1.93
2024-02-02T02:51:57.881Z,1.89
2024-02-02T02:54:25.594Z,1.88
2024-02-02T02:56:54.105Z,1.88
2024-02-02T02:59:21.229Z,1.94
2024-02-02T03:01:48.721Z,1.97
2024-02-02T03:04:17.171Z,1.94
2024-02-02T03:06:44.401Z,1.89
2024-02-02T03:09:13.017Z,1.90
2024-02-02T03:11:40.343Z,1.90
2024-02-02T03:14:08.995Z,1.79
2024-02-02T03:16:36.203Z,1.69
2024-02-02T03:19:03.456Z,1.69
2024-02-02T03:21:30.960Z,1.68
2024-02-02T03:23:58.119Z,1.64
2024-02-02T03:26:25.180Z,1.65
2024-02-02T03:28:52.246Z,1.72
2024-02-02T03:31:20.732Z,1.77
2024-02-02T03:33:48.316Z,1.79
2024-02-02T03:36:15.525Z,1.78
2024-02-02T03:38:42.695Z,1.78
2024-02-02T03:41:09.796Z,1.82
2024-02-02T03:43:36.924Z,1.85
2024-02-02T03:46:04.130Z,1.87
2024-02-02T03:48:32.743Z,1.89
2024-02-02T03:50:59.919Z,1.90
2024-02-02T03:53:27.039Z,1.96
2024-02-02T03:55:54.110Z,1.96
2024-02-02T03:58:21.219Z,1.90
2024-02-02T04:00:48.396Z,1.87
2024-02-02T04:03:16.750Z,1.78
2024-02-02T04:05:45.374Z,1.71
2024-02-02T04:08:12.503Z,1.74
2024-02-02T04:10:39.630Z,1.83
2024-02-02T04:13:06.910Z,1.96
2024-02-02T04:15:34.238Z,2.04
2024-02-02T04:18:01.426Z,2.08
2024-02-02T04:20:28.947Z,2.14
2024-02-02T04:22:57.836Z,2.15
2024-02-02T04:25:24.918Z,2.20
2024-02-02T04:27:52.304Z,2.25
2024-02-02T04:30:19.487Z,2.32
2024-02-02T04:32:46.682Z,2.39
2024-02-02T04:35:14.055Z,2.49
2024-02-02T04:37:41.189Z,2.53
2024-02-02T04:40:13.329Z,2.60
2024-02-02T04:42:40.868Z,2.59
2024-02-02T04:45:08.876Z,2.54
2024-02-02T04:47:35.956Z,2.49
2024-02-02T04:50:03.486Z,2.40
2024-02-02T04:52:30.588Z,2.35
2024-02-02T04:54:58.167Z,2.31
2024-02-02T04:57:26.882Z,2.25
2024-02-02T04:59:55.580Z,2.28
2024-02-02T05:02:22.829Z,2.36
2024-02-02T05:04:49.908Z,2.43
2024-02-02T05:07:16.988Z,2.52
2024-02-02T05:09:44.436Z,2.59
2024-02-02T05:12:12.621Z,2.64
2024-02-02T05:14:41.107Z,2.67
2024-02-02T05:17:08.210Z,2.64
2024-02-02T05:19:35.435Z,2.73
2024-02-02T05:22:02.601Z,2.74
2024-02-02T05:24:42.967Z,2.75
2024-02-02T05:27:13.874Z,2.75
2024-02-02T05:29:44.526Z,2.81
2024-02-02T05:32:11.642Z,2.83
2024-02-02T05:34:38.818Z,2.80
2024-02-02T05:37:06.114Z,2.81
2024-02-02T05:39:33.316Z,2.84
2024-02-02T05:42:04.252Z,2.87
2024-02-02T05:44:31.533Z,2.94
2024-02-02T05:47:00.113Z,3.01
2024-02-02T05:49:27.287Z,3.06
2024-02-02T05:51:54.493Z,3.07
2024-02-02T05:54:21.811Z,3.07
2024-02-02T05:56:48.965Z,3.11
2024-02-02T05:59:16.090Z,3.12
2024-02-02T06:01:43.234Z,3.12
2024-02-02T06:04:11.984Z,3.16
2024-02-02T06:06:39.147Z,3.21
2024-02-02T06:09:06.645Z,3.22
2024-02-02T06:11:33.762Z,3.26
2024-02-02T06:14:01.293Z,3.34
2024-02-02T06:16:28.851Z,3.38
2024-02-02T06:18:56.290Z,3.41
2024-02-02T06:21:25.029Z,3.46
2024-02-02T06:23:52.147Z,3.51
2024-02-02T06:26:19.217Z,3.56
2024-02-02T06:28:46.897Z,3.60
2024-02-02T06:31:17.007Z,3.58
2024-02-02T06:33:44.127Z,3.59
2024-02-02T06:36:11.282Z,3.63
2024-02-02T06:38:39.883Z,3.67
2024-02-02T06:41:08.675Z,3.66
2024-02-02T06:43:35.850Z,3.64
2024-02-02T06:46:05.754Z,3.67
2024-02-02T06:48:36.169Z,3.69
2024-02-02T06:51:05.347Z,3.72
2024-02-02T06:53:34.530Z,3.76
2024-02-02T06:56:08.239Z,3.83
2024-02-02T06:58:41.344Z,3.86
2024-02-02T07:01:08.972Z,3.92
2024-02-02T07:03:36.679Z,4.00
2024-02-02T07:06:06.873Z,4.03
2024-02-02T07:08:34.499Z,4.05
2024-02-02T07:11:39.777Z,4.08
2024-02-02T07:14:10.992Z,4.11
2024-02-02T07:16:38.371Z,4.16
2024-02-02T07:19:05.678Z,4.18
2024-02-02T07:21:34.618Z,4.21
2024-02-02T07:24:04.022Z,4.24
2024-02-02T07:26:33.381Z,4.22
2024-02-02T07:29:06.467Z,4.22
2024-02-02T07:31:39.090Z,4.25
2024-02-02T07:34:34.518Z,4.28
2024-02-02T07:37:02.508Z,4.31
2024-02-02T07:39:31.881Z,4.33
2024-02-02T07:42:01.820Z,4.35
2024-02-02T07:44:29.169Z,4.39
2024-02-02T07:46:56.217Z,4.40
2024-02-02T07:49:23.368Z,4.41
2024-02-02T07:51:50.466Z,4.43
2024-02-02T07:54:18.149Z,4.43
2024-02-02T07:56:45.524Z,4.44
2024-02-02T07:59:13.935Z,4.48
2024-02-02T08:01:41.154Z,4.51
2024-02-02T08:04:08.488Z,4.49
2024-02-02T08:06:36.168Z,4.47
2024-02-02T08:09:03.376Z,4.51
2024-02-02T08:11:36.658Z,4.56
2024-02-02T08:14:04.006Z,4.57
2024-02-02T08:16:32.517Z,4.57
2024-02-02T08:19:00.768Z,4.61
2024-02-02T08:21:28.028Z,4.66
2024-02-02T08:23:55.381Z,4.68
2024-02-02T08:26:22.559Z,4.72
2024-02-02T08:28:54.762Z,4.71
2024-02-02T08:31:22.747Z,4.77
2024-02-02T08:33:51.630Z,4.82
2024-02-02T08:36:21.702Z,4.85
2024-02-02T08:38:48.960Z,4.86
2024-02-02T08:41:16.680Z,4.86
2024-02-02T08:43:43.926Z,4.89
2024-02-02T08:46:12.381Z,4.93
2024-02-02T08:48:42.100Z,5.00
2024-02-02T08:51:48.019Z,5.08
2024-02-02T08:54:38.069Z,5.16
2024-02-02T08:57:42.388Z,5.18
2024-02-02T09:00:15.155Z,5.17
2024-02-02T09:03:00.330Z,5.18
2024-02-02T09:05:49.162Z,5.17
2024-02-02T09:08:35.225Z,5.20
2024-02-02T09:11:18.662Z,5.26
2024-02-02T09:13:46.655Z,5.25
2024-02-02T09:16:15.612Z,5.21
2024-02-02T09:18:46.311Z,5.27
2024-02-02T09:21:17.924Z,5.32
2024-02-02T09:23:52.724Z,5.35
2024-02-02T09:26:33.346Z,5.42
2024-02-02T09:29:01.853Z,5.47
2024-02-02T09:31:33.519Z,5.52
2024-02-02T09:34:06.147Z,5.54
2024-02-02T09:36:33.444Z,5.54
2024-02-02T09:39:07.475Z,5.55
2024-02-02T09:41:54.731Z,5.54
2024-02-02T09:44:36.509Z,5.55
2024-02-02T09:47:20.086Z,5.57
2024-02-02T09:50:00.381Z,5.57
2024-02-02T09:52:37.255Z,5.58
2024-02-02T09:55:13.998Z,5.57
2024-02-02T09:57:50.881Z,5.56
2024-02-02T10:00:26.173Z,5.55
2024-02-02T10:03:05.588Z,5.57
2024-02-02T10:05:43.444Z,5.57
2024-02-02T10:08:26.642Z,5.54
2024-02-02T10:11:09.646Z,5.52
2024-02-02T10:13:48.569Z,5.49
2024-02-02T10:16:28.156Z,5.52
2024-02-02T10:19:18.908Z,5.52
2024-02-02T10:21:57.226Z,5.54
2024-02-02T10:24:46.735Z,5.53
2024-02-02T10:27:30.087Z,5.55
2024-02-02T10:30:09.126Z,5.55
2024-02-02T10:32:52.845Z,5.54
2024-02-02T10:35:31.145Z,5.54
2024-02-02T10:38:11.872Z,5.57
2024-02-02T10:40:46.212Z,5.61
2024-02-02T10:43:39.617Z,5.62
2024-02-02T10:46:18.703Z,5.67
2024-02-02T10:49:04.806Z,5.71
2024-02-02T10:51:39.552Z,5.76
2024-02-02T10:54:27.544Z,5.80
2024-02-02T10:57:06.499Z,5.86
2024-02-02T10:59:44.281Z,5.92
2024-02-02T11:02:22.665Z,5.95
2024-02-02T11:05:02.315Z,5.97
2024-02-02T11:07:34.512Z,5.95
2024-02-02T11:10:04.676Z,5.92
2024-02-02T11:12:42.517Z,5.88
2024-02-02T11:15:26.592Z,5.86
2024-02-02T11:18:09.152Z,5.88
2024-02-02T11:20:49.074Z,5.92
2024-02-02T11:23:22.015Z,5.98
2024-02-02T11:25:54.962Z,6.03
2024-02-02T11:28:32.068Z,6.11
2024-02-02T11:31:10.738Z,6.18
2024-02-02T11:33:47.692Z,6.25
2024-02-02T11:36:29.369Z,6.29
2024-02-02T11:39:10.766Z,6.33
2024-02-02T11:41:40.364Z,6.36
2024-02-02T11:44:09.668Z,6.37
2024-02-02T11:46:39.321Z,6.40
2024-02-02T11:49:10.517Z,6.39
2024-02-02T11:51:41.859Z,6.32
2024-02-02T11:54:19.607Z,6.28
2024-02-02T11:56:51.130Z,6.27
2024-02-02T11:59:23.165Z,6.28
2024-02-02T12:02:07.727Z,6.28
2024-02-02T12:04:41.823Z,6.31
2024-02-02T12:07:23.970Z,6.33
2024-02-02T12:09:59.654Z,6.36
2024-02-02T12:12:33.199Z,6.35
2024-02-02T12:15:00.517Z,6.36
2024-02-02T12:17:29.761Z,6.38
2024-02-02T12:19:59.933Z,6.40
2024-02-02T12:22:27.315Z,6.41
2024-02-02T12:24:54.592Z,6.40
2024-02-02T12:27:21.924Z,6.39
2024-02-02T12:29:49.406Z,6.38
2024-02-02T12:32:16.550Z,6.38
2024-02-02T12:34:46.603Z,6.34
2024-02-02T12:37:13.898Z,6.29
2024-02-02T12:39:41.072Z,6.24
2024-02-02T12:42:08.390Z,6.20
2024-02-02T12:44:35.610Z,6.17
2024-02-02T12:47:05.714Z,6.19
2024-02-02T12:49:34.544Z,6.23
2024-02-02T12:52:03.187Z,6.19
2024-02-02T12:54:30.382Z,6.14
2024-02-02T12:56:57.868Z,6.10
2024-02-02T12:59:25.237Z,6.07
2024-02-02T13:01:52.347Z,6.06
2024-02-02T13:04:20.053Z,6.04
2024-02-02T13:06:47.561Z,6.04
2024-02-02T13:09:19.580Z,6.05
2024-02-02T13:11:47.799Z,6.06
2024-02-02T13:14:25.785Z,6.03
2024-02-02T13:17:04.968Z,6.00
2024-02-02T13:19:36.090Z,5.99
2024-02-02T13:22:03.531Z,5.95
2024-02-02T13:24:33.604Z,5.92
2024-02-02T13:27:04.659Z,5.95
2024-02-02T13:29:35.475Z,5.96
2024-02-02T13:32:04.442Z,5.97
2024-02-02T13:34:32.410Z,5.98
2024-02-02T13:37:03.953Z,6.01
2024-02-02T13:39:34.794Z,6.03
2024-02-02T13:42:06.288Z,6.03
2024-02-02T13:44:35.279Z,6.04
2024-02-02T13:47:02.374Z,6.07
2024-02-02T13:49:33.410Z,6.08
2024-02-02T13:52:05.641Z,6.09
2024-02-02T13:54:34.648Z,6.09
2024-02-02T13:57:02.192Z,6.08
2024-02-02T13:59:30.606Z,6.09
2024-02-02T14:02:05.168Z,6.08
2024-02-02T14:04:32.263Z,6.07
2024-02-02T14:06:59.537Z,6.07
2024-02-02T14:09:26.977Z,6.06
2024-02-02T14:12:04.024Z,6.06
2024-02-02T14:14:31.288Z,6.05
2024-02-02T14:17:03.014Z,6.05
2024-02-02T14:19:30.250Z,6.04
2024-02-02T14:22:05.506Z,6.03
2024-02-02T14:24:32.839Z,6.01
2024-02-02T14:27:02.864Z,6.00
2024-02-02T14:29:40.723Z,5.99
2024-02-02T14:32:08.845Z,5.97
2024-02-02T14:34:36.358Z,5.97
2024-02-02T14:37:04.619Z,5.94
2024-02-02T14:39:32.691Z,5.92
2024-02-02T14:42:01.803Z,5.89
2024-02-02T14:44:30.162Z,5.89
2024-02-02T14:46:58.061Z,5.87
2024-02-02T14:49:27.263Z,5.85
2024-02-02T14:51:55.287Z,5.85
2024-02-02T14:54:24.634Z,5.83
2024-02-02T14:56:52.366Z,5.83
2024-02-02T14:59:30.824Z,5.81
2024-02-02T15:01:58.105Z,5.80
2024-02-02T15:04:25.603Z,5.79
2024-02-02T15:06:53.201Z,5.76
2024-02-02T15:09:20.901Z,5.75
2024-02-02T15:11:48.286Z,5.72
2024-02-02T15:14:16.244Z,5.72
2024-02-02T15:16:44.988Z,5.71
2024-02-02T15:19:12.738Z,5.68
2024-02-02T15:21:39.990Z,5.68
2024-02-02T15:24:07.388Z,5.65
2024-02-02T15:26:36.398Z,5.63
2024-02-02T15:29:03.775Z,5.62
2024-02-02T15:31:30.812Z,5.60
2024-02-02T15:34:01.292Z,5.58
2024-02-02T15:36:30.125Z,5.59
2024-02-02T15:39:09.743Z,5.58
2024-02-02T15:41:44.622Z,5.55
2024-02-02T15:44:11.736Z,5.54
2024-02-02T15:46:39.097Z,5.52
2024-02-02T15:49:07.716Z,5.48
2024-02-02T15:51:34.828Z,5.49
2024-02-02T15:54:01.933Z,5.49
2024-02-02T15:56:29.089Z,5.43
2024-02-02T15:58:56.114Z,5.38
2024-02-02T16:01:23.300Z,5.36
2024-02-02T16:03:51.004Z,5.33
2024-02-02T16:06:25.427Z,5.34
2024-02-02T16:08:52.548Z,5.33
2024-02-02T16:11:20.599Z,5.31
2024-02-02T16:13:49.040Z,5.30
2024-02-02T16:16:16.282Z,5.26
2024-02-02T16:18:43.558Z,5.25
2024-02-02T16:21:12.471Z,5.20
2024-02-02T16:23:41.779Z,5.11
2024-02-02T16:26:09.045Z,5.04
2024-02-02T16:28:36.162Z,4.97
2024-02-02T16:31:04.477Z,4.92
2024-02-02T16:33:31.711Z,4.91
2024-02-02T16:35:58.950Z,4.91
2024-02-02T16:38:26.064Z,4.92
2024-02-02T16:40:54.607Z,4.88
2024-02-02T16:43:21.665Z,4.81
2024-02-02T16:45:49.655Z,4.79
2024-02-02T16:48:19.178Z,4.77
2024-02-02T16:50:46.857Z,4.78
2024-02-02T16:53:14.210Z,4.77
2024-02-02T16:55:41.650Z,4.78
2024-02-02T16:58:10.176Z,4.77
2024-02-02T17:00:38.036Z,4.75
2024-02-02T17:03:05.593Z,4.74
2024-02-02T17:05:32.742Z,4.71
2024-02-02T17:08:00.047Z,4.69
2024-02-02T17:10:27.436Z,4.65
2024-02-02T17:12:54.489Z,4.65
2024-02-02T17:15:23.469Z,4.64
2024-02-02T17:17:50.534Z,4.63
2024-02-02T17:20:19.194Z,4.63
2024-02-02T17:22:46.531Z,4.64
2024-02-02T17:25:13.615Z,4.63
2024-02-02T17:27:42.431Z,4.63
2024-02-02T17:30:14.283Z,4.63
2024-02-02T17:32:42.976Z,4.62
2024-02-02T17:35:10.356Z,4.62
2024-02-02T17:37:38.668Z,4.58
2024-02-02T17:40:08.597Z,4.52
2024-02-02T17:42:38.202Z,4.48
2024-02-02T17:45:06.227Z,4.41
2024-02-02T17:47:33.320Z,4.36
2024-02-02T17:50:04.008Z,4.32
2024-02-02T17:52:31.642Z,4.28
2024-02-02T17:54:58.831Z,4.27
2024-02-02T17:57:26.351Z,4.25
2024-02-02T17:59:53.573Z,4.25
2024-02-02T18:02:20.895Z,4.21
2024-02-02T18:04:47.953Z,4.17
2024-02-02T18:07:16.663Z,4.12
2024-02-02T18:09:43.923Z,4.10
2024-02-02T18:12:11.899Z,4.06
2024-02-02T18:14:39.079Z,4.04
2024-02-02T18:17:06.576Z,4.02
2024-02-02T18:19:34.004Z,3.97
2024-02-02T18:22:01.322Z,3.94
2024-02-02T18:24:29.923Z,3.90
2024-02-02T18:26:57.211Z,3.88
2024-02-02T18:29:24.225Z,3.84
2024-02-02T18:31:51.395Z,3.85
2024-02-02T18:34:18.513Z,3.84
2024-02-02T18:36:45.719Z,3.83
2024-02-02T18:39:14.095Z,3.81
2024-02-02T18:41:42.643Z,3.72
2024-02-02T18:44:10.466Z,3.65
2024-02-02T18:46:37.703Z,3.58
2024-02-02T18:49:05.869Z,3.58
2024-02-02T18:51:33.661Z,3.62
2024-02-02T18:54:00.919Z,3.64
2024-02-02T18:56:28.376Z,3.64
2024-02-02T18:58:56.902Z,3.61
2024-02-02T19:01:25.052Z,3.56
2024-02-02T19:03:52.948Z,3.56
2024-02-02T19:06:20.550Z,3.57
2024-02-02T19:08:47.801Z,3.61
2024-02-02T19:11:15.419Z,3.62
2024-02-02T19:13:42.582Z,3.63
2024-02-02T19:16:18.506Z,3.64
2024-02-02T19:18:45.744Z,3.64
2024-02-02T19:21:18.954Z,3.61
2024-02-02T19:23:46.149Z,3.57
2024-02-02T19:26:13.381Z,3.57
2024-02-02T19:28:40.545Z,3.56
2024-02-02T19:31:07.803Z,3.57
2024-02-02T19:33:36.774Z,3.60
2024-02-02T19:36:04.545Z,3.62
2024-02-02T19:38:33.570Z,3.65
2024-02-02T19:41:00.630Z,3.67
2024-02-02T19:43:27.807Z,3.67
2024-02-02T19:45:54.866Z,3.63
2024-02-02T19:48:22.256Z,3.64
2024-02-02T19:50:51.277Z,3.66
2024-02-02T19:53:18.304Z,3.66
2024-02-02T19:55:45.453Z,3.65
2024-02-02T19:58:14.810Z,3.60
2024-02-02T20:00:42.140Z,3.58
2024-02-02T20:03:09.279Z,3.61
2024-02-02T20:05:36.628Z,3.64
2024-02-02T20:08:06.283Z,3.67
2024-02-02T20:10:33.287Z,3.69
2024-02-02T20:13:00.359Z,3.70
2024-02-02T20:15:28.420Z,3.67
2024-02-02T20:17:55.796Z,3.65
2024-02-02T20:20:24.675Z,3.66
2024-02-02T20:22:51.777Z,3.65
2024-02-02T20:25:20.354Z,3.58
2024-02-02T20:27:47.534Z,3.55
2024-02-02T20:30:15.378Z,3.53
2024-02-02T20:32:42.569Z,3.56
2024-02-02T20:35:09.706Z,3.55
2024-02-02T20:37:36.949Z,3.54
2024-02-02T20:40:05.289Z,3.51
2024-02-02T20:42:33.898Z,3.47
2024-02-02T20:45:04.517Z,3.34
2024-02-02T20:47:33.163Z,3.34
2024-02-02T20:50:00.408Z,3.32
2024-02-02T20:52:27.847Z,3.25
2024-02-02T20:54:55.805Z,3.25
2024-02-02T20:57:22.921Z,3.18
2024-02-02T20:59:51.442Z,3.22
2024-02-02T21:02:18.529Z,3.25
2024-02-02T21:04:45.881Z,3.25
2024-02-02T21:07:13.181Z,3.19
2024-02-02T21:09:40.470Z,3.20
2024-02-02T21:12:08.429Z,3.17
2024-02-02T21:14:35.534Z,3.19
2024-02-02T21:17:04.276Z,3.14
2024-02-02T21:19:32.223Z,3.10
2024-02-02T21:21:59.683Z,3.15
2024-02-02T21:24:26.768Z,3.16
2024-02-02T21:26:53.830Z,3.18
2024-02-02T21:29:20.982Z,3.19
2024-02-02T21:31:48.037Z,3.18
2024-02-02T21:34:17.033Z,3.18
2024-02-02T21:36:44.558Z,3.18
2024-02-02T21:39:12.237Z,3.18
2024-02-02T21:41:39.514Z,3.13
2024-02-02T21:44:10.131Z,3.16
2024-02-02T21:46:37.451Z,3.16
2024-02-02T21:49:04.748Z,3.20
2024-02-02T21:51:33.366Z,3.18
2024-02-02T21:54:00.456Z,3.21
2024-02-02T21:56:27.724Z,3.23
2024-02-02T21:58:54.800Z,3.27
2024-02-02T22:01:21.944Z,3.33
2024-02-02T22:03:49.054Z,3.33
2024-02-02T22:06:16.269Z,3.33
2024-02-02T22:08:44.748Z,3.35
2024-02-02T22:11:14.395Z,3.29
2024-02-02T22:13:41.670Z,3.30
2024-02-02T22:16:10.264Z,3.29
2024-02-02T22:18:37.751Z,3.27
2024-02-02T22:21:05.431Z,3.30
2024-02-02T22:23:32.597Z,3.33
2024-02-02T22:26:01.043Z,3.37
2024-02-02T22:28:29.037Z,3.37
2024-02-02T22:30:56.259Z,3.34
2024-02-02T22:33:23.373Z,3.34
2024-02-02T22:35:50.481Z,3.33
2024-02-02T22:38:17.842Z,3.30
2024-02-02T22:40:44.934Z,3.33
2024-02-02T22:43:13.346Z,3.35
2024-02-02T22:45:40.423Z,3.36
2024-02-02T22:48:07.812Z,3.37
2024-02-02T22:50:34.958Z,3.39
2024-02-02T22:53:02.038Z,3.40
2024-02-02T22:55:29.106Z,3.44
2024-02-02T22:57:56.290Z,3.49
2024-02-02T23:00:24.856Z,3.48
2024-02-02T23:02:51.943Z,3.47
2024-02-02T23:05:19.019Z,3.49
2024-02-02T23:07:46.230Z,3.49
2024-02-02T23:10:13.540Z,3.51
2024-02-02T23:12:40.805Z,3.50
2024-02-02T23:15:09.154Z,3.47
2024-02-02T23:17:37.918Z,3.49
2024-02-02T23:20:06.269Z,3.46
2024-02-02T23:22:33.409Z,3.48
2024-02-02T23:25:00.475Z,3.51
2024-02-02T23:27:27.831Z,3.53
2024-02-02T23:29:54.936Z,3.54
2024-02-02T23:32:22.120Z,3.54
2024-02-02T23:34:51.064Z,3.52
2024-02-02T23:37:18.157Z,3.49
2024-02-02T23:39:45.245Z,3.50
2024-02-02T23:42:12.462Z,3.48
2024-02-02T23:44:39.605Z,3.49
2024-02-02T23:47:10.363Z,3.49
2024-02-02T23:49:37.855Z,3.48
2024-02-02T23:52:06.983Z,3.46
2024-02-02T23:54:34.149Z,3.44
2024-02-02T23:57:01.342Z,3.43
2024-02-02T23:59:28.398Z,3.44
